Gennaro Ievoli — 9HA3007 — position and weather

sailwx.info

Track history (hours):
 
Tides and Currents Weather Stations Pressure Air Temp Water Temp Dewpoint Dewpoint Depression Visibility Wind Speed Wind Dir Waves Ship Positions

Gennaro Ievoli

Last reported at 2017-Mar-15 07:33 UTC. Time now 2017-Mar-23 06:22 UTC.
Position N 31°06' E 122°27'.

Length 171 m; draft 6.9 m.

Type: Ship. MMSI: 229031000.

Date/timePositionNaut miles runAvg speedWind from/ knotsBaromVisibWave heightAir tempDewpointWater temp
2017-Mar-15 07:33N 31°06' E 122°27'1211.6
2017-Mar-15 06:33N 31°03' E 122°13'1111.0
2017-Mar-15 05:33N 31°05' E 122°01'9 9.0
2017-Mar-15 04:33N 31°10' E 121°52'8 8.1
2017-Mar-15 03:33N 31°16' E 121°46'10 9.6
2017-Mar-15 02:33N 31°22' E 121°37'1111.2
2017-Mar-15 01:33N 31°29' E 121°27'7 6.8
2017-Mar-15 00:32N 31°30' E 121°35'5 4.6
2017-Mar-14 23:33N 31°33' E 121°31'4 3.6
2017-Mar-14 22:34N 31°35' E 121°27'0 0.0
2017-Mar-14 21:33N 31°35' E 121°27'0 0.1
2017-Mar-14 20:31N 31°35' E 121°27'0 0.2
2017-Mar-14 19:31N 31°35' E 121°27'0 0.0
2017-Mar-14 18:33N 31°35' E 121°27'0 0.0
2017-Mar-14 17:33N 31°35' E 121°27'0 0.1
2017-Mar-14 16:32N 31°35' E 121°27'0 0.1
2017-Mar-14 15:32N 31°35' E 121°27'0 0.2
2017-Mar-14 14:27N 31°35' E 121°27'0 0.1
2017-Mar-14 13:31N 31°35' E 121°28'0 0.1
2017-Mar-14 12:30N 31°35' E 121°27'0 0.0
2017-Mar-14 11:27N 31°35' E 121°27'0 0.0
2017-Mar-14 10:33N 31°35' E 121°27'0 0.0
2017-Mar-14 09:29N 31°35' E 121°27'0 0.1
2017-Mar-14 08:21N 31°35' E 121°27'0 0.2
2017-Mar-14 07:33N 31°35' E 121°27'0 0.0
2017-Mar-14 06:32N 31°35' E 121°27'0 0.0
2017-Mar-14 05:32N 31°35' E 121°27'0 0.0
2017-Mar-14 04:31N 31°35' E 121°27'0 0.1
2017-Mar-14 03:31N 31°35' E 121°27'0 0.3
2017-Mar-14 02:33N 31°35' E 121°28'0 0.0
2017-Mar-14 01:30N 31°35' E 121°28'0 0.0
2017-Mar-14 00:33N 31°35' E 121°28'0 0.0
2017-Mar-13 23:32N 31°35' E 121°28'0 0.0
2017-Mar-13 22:32N 31°35' E 121°28'0 0.0
2017-Mar-13 21:33N 31°35' E 121°28'0 0.0
2017-Mar-13 20:31N 31°35' E 121°28'0 0.1
2017-Mar-13 19:33N 31°35' E 121°27'0 0.2
2017-Mar-13 18:31N 31°35' E 121°27'0 0.0
2017-Mar-13 17:28N 31°35' E 121°27'0 0.0
2017-Mar-13 16:33N 31°35' E 121°27'0 0.0
2017-Mar-13 15:33N 31°35' E 121°27'0 0.2
2017-Mar-13 14:25N 31°35' E 121°28'0 0.0
2017-Mar-13 13:31N 31°35' E 121°28'0 0.0
2017-Mar-13 12:32N 31°35' E 121°28'0 0.0
2017-Mar-13 11:32N 31°35' E 121°28'0 0.0
2017-Mar-13 10:31N 31°35' E 121°28'0 0.0
2017-Mar-13 09:31N 31°35' E 121°28'0 0.1
2017-Mar-13 08:30N 31°35' E 121°27'0 0.1
2017-Mar-13 07:27N 31°35' E 121°27'0 0.1
2017-Mar-13 06:33N 31°35' E 121°27'0 0.1
2017-Mar-13 05:32N 31°35' E 121°27'0 0.1
2017-Mar-13 04:32N 31°35' E 121°27'3 3.1
2017-Mar-13 03:33N 31°34' E 121°30'2 2.1
2017-Mar-13 02:33N 31°35' E 121°28'2 1.6
2017-Mar-13 01:33N 31°36' E 121°27'0 0.0
2017-Mar-13 00:33N 31°36' E 121°27'0 0.0
2017-Mar-12 23:32N 31°36' E 121°27'0 0.0
2017-Mar-12 22:29N 31°36' E 121°27'0 0.0
2017-Mar-12 21:31N 31°36' E 121°27'0 0.0
2017-Mar-12 20:31N 31°36' E 121°27'0 0.0
2017-Mar-12 19:31N 31°36' E 121°27'0 0.0
2017-Mar-12 18:29N 31°36' E 121°27'0 0.0
2017-Mar-12 17:32N 31°36' E 121°27'0 0.0
2017-Mar-12 16:31N 31°36' E 121°27'0 0.0
2017-Mar-12 15:31N 31°36' E 121°27'0 0.0
2017-Mar-12 14:31N 31°36' E 121°27'0 0.0
2017-Mar-12 13:33N 31°36' E 121°27'0 0.0
2017-Mar-12 12:33N 31°36' E 121°27'0 0.0
2017-Mar-12 11:32N 31°36' E 121°27'0 0.0
2017-Mar-12 10:29N 31°36' E 121°27'0 0.0
2017-Mar-12 09:31N 31°36' E 121°27'0 0.0
2017-Mar-12 08:31N 31°36' E 121°27'0 0.0
2017-Mar-12 07:31N 31°36' E 121°27'0 0.0
2017-Mar-12 06:33N 31°36' E 121°27'0 0.0
2017-Mar-12 05:30N 31°36' E 121°27'0 0.0
2017-Mar-12 04:32N 31°36' E 121°27'0 0.0
2017-Mar-12 03:32N 31°36' E 121°27'0 0.0
2017-Mar-12 02:25N 31°36' E 121°27'0 0.0
2017-Mar-12 01:31N 31°36' E 121°27'0 0.0
2017-Mar-12 00:31N 31°36' E 121°27'0 0.0
2017-Mar-11 23:33N 31°36' E 121°27'0 0.0
2017-Mar-11 22:29N 31°36' E 121°27'0 0.0
2017-Mar-11 21:32N 31°36' E 121°27'0 0.0
2017-Mar-11 20:28N 31°36' E 121°27'0 0.0
2017-Mar-11 19:31N 31°36' E 121°27'0 0.0
2017-Mar-11 18:30N 31°36' E 121°27'0 0.0
2017-Mar-11 17:33N 31°36' E 121°27'0 0.0
2017-Mar-11 16:33N 31°36' E 121°27'0 0.0
2017-Mar-11 15:32N 31°36' E 121°27'0 0.0
2017-Mar-11 14:30N 31°36' E 121°27'0 0.0
2017-Mar-11 13:31N 31°36' E 121°27'0 0.0
2017-Mar-11 12:33N 31°36' E 121°27'0 0.0
2017-Mar-11 11:32N 31°36' E 121°27'0 0.0
2017-Mar-11 10:29N 31°36' E 121°27'0 0.0
2017-Mar-11 09:31N 31°36' E 121°27'0 0.0
2017-Mar-11 08:31N 31°36' E 121°27'0 0.0
2017-Mar-11 07:33N 31°36' E 121°27'0 0.0
2017-Mar-11 06:30N 31°36' E 121°27'0 0.0
2017-Mar-11 05:33N 31°36' E 121°27'0 0.0
2017-Mar-11 04:32N 31°36' E 121°27'0 0.0
2017-Mar-11 03:32N 31°36' E 121°27'0 0.0
2017-Mar-11 02:28N 31°36' E 121°27'0 0.0
2017-Mar-11 01:31N 31°36' E 121°27'0 0.0
2017-Mar-11 00:33N 31°36' E 121°27'0 0.0
2017-Mar-10 23:31N 31°36' E 121°27'0 0.0
2017-Mar-10 22:33N 31°36' E 121°27'0 0.0
2017-Mar-10 21:33N 31°36' E 121°27'0 0.0
2017-Mar-10 20:32N 31°36' E 121°27'0 0.0
2017-Mar-10 19:32N 31°36' E 121°27'0 0.0
2017-Mar-10 18:31N 31°36' E 121°27'0 0.0
2017-Mar-10 17:31N 31°36' E 121°27'0 0.0
2017-Mar-10 16:31N 31°36' E 121°27'0 0.0
2017-Mar-10 15:33N 31°36' E 121°27'0 0.0
2017-Mar-10 14:24N 31°36' E 121°27'0 0.0
2017-Mar-10 13:33N 31°36' E 121°27'0 0.0
2017-Mar-10 12:32N 31°36' E 121°27'0 0.0
2017-Mar-10 11:32N 31°36' E 121°27'0 0.0
2017-Mar-10 10:32N 31°36' E 121°27'0 0.0
2017-Mar-10 09:32N 31°36' E 121°27'0 0.0
2017-Mar-10 08:31N 31°36' E 121°27'0 0.0
2017-Mar-10 07:34N 31°36' E 121°27'0 0.0
2017-Mar-10 06:31N 31°36' E 121°27'0 0.0
2017-Mar-10 05:31N 31°36' E 121°27'0 0.0
2017-Mar-10 04:33N 31°36' E 121°27'0 0.0
2017-Mar-10 03:12N 31°36' E 121°27'0 0.0
2017-Mar-10 02:32N 31°36' E 121°27'0 0.0
2017-Mar-10 01:32N 31°36' E 121°27'0 0.0
2017-Mar-10 00:31N 31°36' E 121°27'0 0.0
2017-Mar-09 23:31N 31°36' E 121°27'0 0.0
2017-Mar-09 22:28N 31°36' E 121°27'0 0.0
2017-Mar-09 21:33N 31°36' E 121°27'0 0.0
2017-Mar-09 20:32N 31°36' E 121°27'0 0.0
2017-Mar-09 19:29N 31°36' E 121°27'0 0.0
2017-Mar-09 18:31N 31°36' E 121°27'0 0.0
2017-Mar-09 17:31N 31°36' E 121°27'0 0.0
2017-Mar-09 16:33N 31°36' E 121°27'0 0.0
2017-Mar-09 15:33N 31°36' E 121°27'0 0.0
2017-Mar-09 14:32N 31°36' E 121°27'0 0.0
2017-Mar-09 13:31N 31°36' E 121°27'0 0.0
2017-Mar-09 12:31N 31°36' E 121°27'0 0.0
2017-Mar-09 11:27N 31°36' E 121°27'0 0.0
2017-Mar-09 10:32N 31°36' E 121°27'0 0.0
2017-Mar-09 09:32N 31°36' E 121°27'0 0.0
2017-Mar-09 08:31N 31°36' E 121°27'0 0.0
2017-Mar-09 07:28N 31°36' E 121°27'0 0.0
2017-Mar-09 06:28N 31°36' E 121°27'0 0.0
2017-Mar-09 05:33N 31°36' E 121°27'0 0.0
2017-Mar-09 04:27N 31°36' E 121°27'0 0.0
2017-Mar-09 03:32N 31°36' E 121°27'0 0.0
2017-Mar-09 02:32N 31°36' E 121°27'0 0.0
2017-Mar-09 01:31N 31°36' E 121°27'0 0.0
2017-Mar-09 00:32N 31°36' E 121°27'0 0.1
2017-Mar-08 23:31N 31°36' E 121°27'0 0.1
2017-Mar-08 22:31N 31°36' E 121°27'0 0.0
2017-Mar-08 21:31N 31°36' E 121°27'0 0.0
2017-Mar-08 20:33N 31°36' E 121°27'0 0.0
2017-Mar-08 19:33N 31°36' E 121°27'0 0.0
2017-Mar-08 18:29N 31°36' E 121°27'0 0.0
2017-Mar-08 17:32N 31°36' E 121°27'0 0.0
2017-Mar-08 16:31N 31°36' E 121°27'0 0.0
2017-Mar-08 15:31N 31°36' E 121°27'0 0.0
2017-Mar-08 14:31N 31°36' E 121°27'0 0.0
2017-Mar-08 13:33N 31°36' E 121°27'0 0.0
2017-Mar-08 12:33N 31°36' E 121°27'0 0.0
2017-Mar-08 11:32N 31°36' E 121°27'0 0.0
2017-Mar-08 10:32N 31°36' E 121°27'0 0.0
2017-Mar-08 09:31N 31°36' E 121°27'0 0.0
2017-Mar-08 08:31N 31°36' E 121°27'0 0.0
2017-Mar-08 07:31N 31°36' E 121°27'0 0.0
2017-Mar-08 06:30N 31°36' E 121°27'0 0.0
2017-Mar-08 05:33N 31°36' E 121°27'0 0.0
2017-Mar-08 04:32N 31°36' E 121°27'0 0.0
2017-Mar-08 03:26N 31°36' E 121°27'0 0.0
2017-Mar-08 02:31N 31°36' E 121°27'0 0.0
2017-Mar-08 01:31N 31°36' E 121°27'0 0.0
2017-Mar-08 00:30N 31°36' E 121°27'0 0.0
2017-Mar-07 23:31N 31°36' E 121°27'0 0.0
2017-Mar-07 22:33N 31°36' E 121°27'0 0.0
2017-Mar-07 21:33N 31°36' E 121°27'0 0.0
2017-Mar-07 20:32N 31°36' E 121°27'0 0.0
2017-Mar-07 19:32N 31°36' E 121°27'0 0.0
2017-Mar-07 18:32N 31°36' E 121°27'0 0.0
2017-Mar-07 17:31N 31°36' E 121°27'0 0.0
2017-Mar-07 16:31N 31°36' E 121°27'0 0.0
2017-Mar-07 15:33N 31°36' E 121°27'0 0.0
2017-Mar-07 14:32N 31°36' E 121°27'0 0.0
2017-Mar-07 13:24N 31°36' E 121°27'0 0.0
2017-Mar-07 12:32N 31°36' E 121°27'0 0.0
2017-Mar-07 11:32N 31°36' E 121°27'0 0.0
2017-Mar-07 10:31N 31°36' E 121°27'0 0.0
2017-Mar-07 09:31N 31°36' E 121°27'0 0.0
2017-Mar-07 08:30N 31°36' E 121°27'0 0.0
2017-Mar-07 07:33N 31°36' E 121°27'0 0.0
2017-Mar-07 06:32N 31°36' E 121°27'0 0.0
2017-Mar-06 10:34N 31°36' E 121°27'0 0.0
2017-Mar-06 09:33N 31°36' E 121°27'0 0.0
2017-Mar-06 08:33N 31°36' E 121°27'0 0.0
2017-Mar-06 07:34N 31°36' E 121°27'0 0.0
2017-Mar-06 06:33N 31°36' E 121°27'0 0.0
2017-Mar-06 05:33N 31°36' E 121°27'0 0.0
2017-Mar-06 04:33N 31°36' E 121°27'0 0.0
2017-Mar-06 03:33N 31°36' E 121°27'0 0.0
2017-Mar-06 02:33N 31°36' E 121°27'0 0.0
2017-Mar-06 01:34N 31°36' E 121°27'0 0.0
2017-Mar-06 00:33N 31°36' E 121°27'0 0.0
2017-Mar-05 23:33N 31°36' E 121°27'0 0.0
2017-Mar-05 22:33N 31°36' E 121°27'0 0.0
2017-Mar-05 21:33N 31°36' E 121°27'0 0.0
2017-Mar-05 20:33N 31°36' E 121°27'0 0.0
2017-Mar-05 19:33N 31°36' E 121°27'0 0.0
2017-Mar-05 18:33N 31°36' E 121°27'0 0.0
2017-Mar-05 17:33N 31°36' E 121°27'0 0.0
2017-Mar-05 16:33N 31°36' E 121°27'0 0.0
2017-Mar-05 15:34N 31°36' E 121°27'0 0.0
2017-Mar-05 14:33N 31°36' E 121°27'0 0.0
2017-Mar-05 13:33N 31°36' E 121°27'0 0.0
2017-Mar-05 12:34N 31°36' E 121°27'0 0.0
2017-Mar-05 11:33N 31°36' E 121°27'0 0.0
2017-Mar-05 10:33N 31°36' E 121°27'0 0.0
2017-Mar-05 09:34N 31°36' E 121°27'0 0.0
2017-Mar-05 08:33N 31°36' E 121°27'0 0.0
2017-Mar-05 07:33N 31°36' E 121°27'  
Track history (hours):
 
Tides and Currents Weather Stations Pressure Air Temp Water Temp Dewpoint Dewpoint Depression Visibility Wind Speed Wind Dir Waves Ship Positions

Gennaro Ievoli

Last reported at 2017-Mar-15 07:33 UTC. Time now 2017-Mar-23 06:22 UTC.
Position N 31°06' E 122°27'.

Length 171 m; draft 6.9 m.

Type: Ship. MMSI: 229031000.

Date/timePositionNaut miles runAvg speedWind from/ knotsBaromVisibWave heightAir tempDewpointWater temp
2017-Mar-15 07:33N 31°06' E 122°27'1211.6
2017-Mar-15 06:33N 31°03' E 122°13'1111.0
2017-Mar-15 05:33N 31°05' E 122°01'9 9.0
2017-Mar-15 04:33N 31°10' E 121°52'8 8.1
2017-Mar-15 03:33N 31°16' E 121°46'10 9.6
2017-Mar-15 02:33N 31°22' E 121°37'1111.2
2017-Mar-15 01:33N 31°29' E 121°27'7 6.8
2017-Mar-15 00:32N 31°30' E 121°35'5 4.6
2017-Mar-14 23:33N 31°33' E 121°31'4 3.6
2017-Mar-14 22:34N 31°35' E 121°27'0 0.0
2017-Mar-14 21:33N 31°35' E 121°27'0 0.1
2017-Mar-14 20:31N 31°35' E 121°27'0 0.2
2017-Mar-14 19:31N 31°35' E 121°27'0 0.0
2017-Mar-14 18:33N 31°35' E 121°27'0 0.0
2017-Mar-14 17:33N 31°35' E 121°27'0 0.1
2017-Mar-14 16:32N 31°35' E 121°27'0 0.1
2017-Mar-14 15:32N 31°35' E 121°27'0 0.2
2017-Mar-14 14:27N 31°35' E 121°27'0 0.1
2017-Mar-14 13:31N 31°35' E 121°28'0 0.1
2017-Mar-14 12:30N 31°35' E 121°27'0 0.0
2017-Mar-14 11:27N 31°35' E 121°27'0 0.0
2017-Mar-14 10:33N 31°35' E 121°27'0 0.0
2017-Mar-14 09:29N 31°35' E 121°27'0 0.1
2017-Mar-14 08:21N 31°35' E 121°27'0 0.2
2017-Mar-14 07:33N 31°35' E 121°27'0 0.0
2017-Mar-14 06:32N 31°35' E 121°27'0 0.0
2017-Mar-14 05:32N 31°35' E 121°27'0 0.0
2017-Mar-14 04:31N 31°35' E 121°27'0 0.1
2017-Mar-14 03:31N 31°35' E 121°27'0 0.3
2017-Mar-14 02:33N 31°35' E 121°28'0 0.0
2017-Mar-14 01:30N 31°35' E 121°28'0 0.0
2017-Mar-14 00:33N 31°35' E 121°28'0 0.0
2017-Mar-13 23:32N 31°35' E 121°28'0 0.0
2017-Mar-13 22:32N 31°35' E 121°28'0 0.0
2017-Mar-13 21:33N 31°35' E 121°28'0 0.0
2017-Mar-13 20:31N 31°35' E 121°28'0 0.1
2017-Mar-13 19:33N 31°35' E 121°27'0 0.2
2017-Mar-13 18:31N 31°35' E 121°27'0 0.0
2017-Mar-13 17:28N 31°35' E 121°27'0 0.0
2017-Mar-13 16:33N 31°35' E 121°27'0 0.0
2017-Mar-13 15:33N 31°35' E 121°27'0 0.2
2017-Mar-13 14:25N 31°35' E 121°28'0 0.0
2017-Mar-13 13:31N 31°35' E 121°28'0 0.0
2017-Mar-13 12:32N 31°35' E 121°28'0 0.0
2017-Mar-13 11:32N 31°35' E 121°28'0 0.0
2017-Mar-13 10:31N 31°35' E 121°28'0 0.0
2017-Mar-13 09:31N 31°35' E 121°28'0 0.1
2017-Mar-13 08:30N 31°35' E 121°27'0 0.1
2017-Mar-13 07:27N 31°35' E 121°27'0 0.1
2017-Mar-13 06:33N 31°35' E 121°27'0 0.1
2017-Mar-13 05:32N 31°35' E 121°27'0 0.1
2017-Mar-13 04:32N 31°35' E 121°27'3 3.1
2017-Mar-13 03:33N 31°34' E 121°30'2 2.1
2017-Mar-13 02:33N 31°35' E 121°28'2 1.6
2017-Mar-13 01:33N 31°36' E 121°27'0 0.0
2017-Mar-13 00:33N 31°36' E 121°27'0 0.0
2017-Mar-12 23:32N 31°36' E 121°27'0 0.0
2017-Mar-12 22:29N 31°36' E 121°27'0 0.0
2017-Mar-12 21:31N 31°36' E 121°27'0 0.0
2017-Mar-12 20:31N 31°36' E 121°27'0 0.0
2017-Mar-12 19:31N 31°36' E 121°27'0 0.0
2017-Mar-12 18:29N 31°36' E 121°27'0 0.0
2017-Mar-12 17:32N 31°36' E 121°27'0 0.0
2017-Mar-12 16:31N 31°36' E 121°27'0 0.0
2017-Mar-12 15:31N 31°36' E 121°27'0 0.0
2017-Mar-12 14:31N 31°36' E 121°27'0 0.0
2017-Mar-12 13:33N 31°36' E 121°27'0 0.0
2017-Mar-12 12:33N 31°36' E 121°27'0 0.0
2017-Mar-12 11:32N 31°36' E 121°27'0 0.0
2017-Mar-12 10:29N 31°36' E 121°27'0 0.0
2017-Mar-12 09:31N 31°36' E 121°27'0 0.0
2017-Mar-12 08:31N 31°36' E 121°27'0 0.0
2017-Mar-12 07:31N 31°36' E 121°27'0 0.0
2017-Mar-12 06:33N 31°36' E 121°27'0 0.0
2017-Mar-12 05:30N 31°36' E 121°27'0 0.0
2017-Mar-12 04:32N 31°36' E 121°27'0 0.0
2017-Mar-12 03:32N 31°36' E 121°27'0 0.0
2017-Mar-12 02:25N 31°36' E 121°27'0 0.0
2017-Mar-12 01:31N 31°36' E 121°27'0 0.0
2017-Mar-12 00:31N 31°36' E 121°27'0 0.0
2017-Mar-11 23:33N 31°36' E 121°27'0 0.0
2017-Mar-11 22:29N 31°36' E 121°27'0 0.0
2017-Mar-11 21:32N 31°36' E 121°27'0 0.0
2017-Mar-11 20:28N 31°36' E 121°27'0 0.0
2017-Mar-11 19:31N 31°36' E 121°27'0 0.0
2017-Mar-11 18:30N 31°36' E 121°27'0 0.0
2017-Mar-11 17:33N 31°36' E 121°27'0 0.0
2017-Mar-11 16:33N 31°36' E 121°27'0 0.0
2017-Mar-11 15:32N 31°36' E 121°27'0 0.0
2017-Mar-11 14:30N 31°36' E 121°27'0 0.0
2017-Mar-11 13:31N 31°36' E 121°27'0 0.0
2017-Mar-11 12:33N 31°36' E 121°27'0 0.0
2017-Mar-11 11:32N 31°36' E 121°27'0 0.0
2017-Mar-11 10:29N 31°36' E 121°27'0 0.0
2017-Mar-11 09:31N 31°36' E 121°27'0 0.0
2017-Mar-11 08:31N 31°36' E 121°27'0 0.0
2017-Mar-11 07:33N 31°36' E 121°27'0 0.0
2017-Mar-11 06:30N 31°36' E 121°27'0 0.0
2017-Mar-11 05:33N 31°36' E 121°27'0 0.0
2017-Mar-11 04:32N 31°36' E 121°27'0 0.0
2017-Mar-11 03:32N 31°36' E 121°27'0 0.0
2017-Mar-11 02:28N 31°36' E 121°27'0 0.0
2017-Mar-11 01:31N 31°36' E 121°27'0 0.0
2017-Mar-11 00:33N 31°36' E 121°27'0 0.0
2017-Mar-10 23:31N 31°36' E 121°27'0 0.0
2017-Mar-10 22:33N 31°36' E 121°27'0 0.0
2017-Mar-10 21:33N 31°36' E 121°27'0 0.0
2017-Mar-10 20:32N 31°36' E 121°27'0 0.0
2017-Mar-10 19:32N 31°36' E 121°27'0 0.0
2017-Mar-10 18:31N 31°36' E 121°27'0 0.0
2017-Mar-10 17:31N 31°36' E 121°27'0 0.0
2017-Mar-10 16:31N 31°36' E 121°27'0 0.0
2017-Mar-10 15:33N 31°36' E 121°27'0 0.0
2017-Mar-10 14:24N 31°36' E 121°27'0 0.0
2017-Mar-10 13:33N 31°36' E 121°27'0 0.0
2017-Mar-10 12:32N 31°36' E 121°27'0 0.0
2017-Mar-10 11:32N 31°36' E 121°27'0 0.0
2017-Mar-10 10:32N 31°36' E 121°27'0 0.0
2017-Mar-10 09:32N 31°36' E 121°27'0 0.0
2017-Mar-10 08:31N 31°36' E 121°27'0 0.0
2017-Mar-10 07:34N 31°36' E 121°27'0 0.0
2017-Mar-10 06:31N 31°36' E 121°27'0 0.0
2017-Mar-10 05:31N 31°36' E 121°27'0 0.0
2017-Mar-10 04:33N 31°36' E 121°27'0 0.0
2017-Mar-10 03:12N 31°36' E 121°27'0 0.0
2017-Mar-10 02:32N 31°36' E 121°27'0 0.0
2017-Mar-10 01:32N 31°36' E 121°27'0 0.0
2017-Mar-10 00:31N 31°36' E 121°27'0 0.0
2017-Mar-09 23:31N 31°36' E 121°27'0 0.0
2017-Mar-09 22:28N 31°36' E 121°27'0 0.0
2017-Mar-09 21:33N 31°36' E 121°27'0 0.0
2017-Mar-09 20:32N 31°36' E 121°27'0 0.0
2017-Mar-09 19:29N 31°36' E 121°27'0 0.0
2017-Mar-09 18:31N 31°36' E 121°27'0 0.0
2017-Mar-09 17:31N 31°36' E 121°27'0 0.0
2017-Mar-09 16:33N 31°36' E 121°27'0 0.0
2017-Mar-09 15:33N 31°36' E 121°27'0 0.0
2017-Mar-09 14:32N 31°36' E 121°27'0 0.0
2017-Mar-09 13:31N 31°36' E 121°27'0 0.0
2017-Mar-09 12:31N 31°36' E 121°27'0 0.0
2017-Mar-09 11:27N 31°36' E 121°27'0 0.0
2017-Mar-09 10:32N 31°36' E 121°27'0 0.0
2017-Mar-09 09:32N 31°36' E 121°27'0 0.0
2017-Mar-09 08:31N 31°36' E 121°27'0 0.0
2017-Mar-09 07:28N 31°36' E 121°27'0 0.0
2017-Mar-09 06:28N 31°36' E 121°27'0 0.0
2017-Mar-09 05:33N 31°36' E 121°27'0 0.0
2017-Mar-09 04:27N 31°36' E 121°27'0 0.0
2017-Mar-09 03:32N 31°36' E 121°27'0 0.0
2017-Mar-09 02:32N 31°36' E 121°27'0 0.0
2017-Mar-09 01:31N 31°36' E 121°27'0 0.0
2017-Mar-09 00:32N 31°36' E 121°27'0 0.1
2017-Mar-08 23:31N 31°36' E 121°27'0 0.1
2017-Mar-08 22:31N 31°36' E 121°27'0 0.0
2017-Mar-08 21:31N 31°36' E 121°27'0 0.0
2017-Mar-08 20:33N 31°36' E 121°27'0 0.0
2017-Mar-08 19:33N 31°36' E 121°27'0 0.0
2017-Mar-08 18:29N 31°36' E 121°27'0 0.0
2017-Mar-08 17:32N 31°36' E 121°27'0 0.0
2017-Mar-08 16:31N 31°36' E 121°27'0 0.0
2017-Mar-08 15:31N 31°36' E 121°27'0 0.0
2017-Mar-08 14:31N 31°36' E 121°27'0 0.0
2017-Mar-08 13:33N 31°36' E 121°27'0 0.0
2017-Mar-08 12:33N 31°36' E 121°27'0 0.0
2017-Mar-08 11:32N 31°36' E 121°27'0 0.0
2017-Mar-08 10:32N 31°36' E 121°27'0 0.0
2017-Mar-08 09:31N 31°36' E 121°27'0 0.0
2017-Mar-08 08:31N 31°36' E 121°27'0 0.0
2017-Mar-08 07:31N 31°36' E 121°27'0 0.0
2017-Mar-08 06:30N 31°36' E 121°27'0 0.0
2017-Mar-08 05:33N 31°36' E 121°27'0 0.0
2017-Mar-08 04:32N 31°36' E 121°27'0 0.0
2017-Mar-08 03:26N 31°36' E 121°27'0 0.0
2017-Mar-08 02:31N 31°36' E 121°27'0 0.0
2017-Mar-08 01:31N 31°36' E 121°27'0 0.0
2017-Mar-08 00:30N 31°36' E 121°27'0 0.0
2017-Mar-07 23:31N 31°36' E 121°27'0 0.0
2017-Mar-07 22:33N 31°36' E 121°27'0 0.0
2017-Mar-07 21:33N 31°36' E 121°27'0 0.0
2017-Mar-07 20:32N 31°36' E 121°27'0 0.0
2017-Mar-07 19:32N 31°36' E 121°27'0 0.0
2017-Mar-07 18:32N 31°36' E 121°27'0 0.0
2017-Mar-07 17:31N 31°36' E 121°27'0 0.0
2017-Mar-07 16:31N 31°36' E 121°27'0 0.0
2017-Mar-07 15:33N 31°36' E 121°27'0 0.0
2017-Mar-07 14:32N 31°36' E 121°27'0 0.0
2017-Mar-07 13:24N 31°36' E 121°27'0 0.0
2017-Mar-07 12:32N 31°36' E 121°27'0 0.0
2017-Mar-07 11:32N 31°36' E 121°27'0 0.0
2017-Mar-07 10:31N 31°36' E 121°27'0 0.0
2017-Mar-07 09:31N 31°36' E 121°27'0 0.0
2017-Mar-07 08:30N 31°36' E 121°27'0 0.0
2017-Mar-07 07:33N 31°36' E 121°27'0 0.0
2017-Mar-07 06:32N 31°36' E 121°27'0 0.0
2017-Mar-06 10:34N 31°36' E 121°27'0 0.0
2017-Mar-06 09:33N 31°36' E 121°27'0 0.0
2017-Mar-06 08:33N 31°36' E 121°27'0 0.0
2017-Mar-06 07:34N 31°36' E 121°27'0 0.0
2017-Mar-06 06:33N 31°36' E 121°27'0 0.0
2017-Mar-06 05:33N 31°36' E 121°27'0 0.0
2017-Mar-06 04:33N 31°36' E 121°27'0 0.0
2017-Mar-06 03:33N 31°36' E 121°27'0 0.0
2017-Mar-06 02:33N 31°36' E 121°27'0 0.0
2017-Mar-06 01:34N 31°36' E 121°27'0 0.0
2017-Mar-06 00:33N 31°36' E 121°27'0 0.0
2017-Mar-05 23:33N 31°36' E 121°27'0 0.0
2017-Mar-05 22:33N 31°36' E 121°27'0 0.0
2017-Mar-05 21:33N 31°36' E 121°27'0 0.0
2017-Mar-05 20:33N 31°36' E 121°27'0 0.0
2017-Mar-05 19:33N 31°36' E 121°27'0 0.0
2017-Mar-05 18:33N 31°36' E 121°27'0 0.0
2017-Mar-05 17:33N 31°36' E 121°27'0 0.0
2017-Mar-05 16:33N 31°36' E 121°27'0 0.0
2017-Mar-05 15:34N 31°36' E 121°27'0 0.0
2017-Mar-05 14:33N 31°36' E 121°27'0 0.0
2017-Mar-05 13:33N 31°36' E 121°27'0 0.0
2017-Mar-05 12:34N 31°36' E 121°27'0 0.0
2017-Mar-05 11:33N 31°36' E 121°27'0 0.0
2017-Mar-05 10:33N 31°36' E 121°27'0 0.0
2017-Mar-05 09:34N 31°36' E 121°27'0 0.0
2017-Mar-05 08:33N 31°36' E 121°27'0 0.0
2017-Mar-05 07:33N 31°36' E 121°27'  

Dump ship's entire track history